sensor_id;sensor_type;location;lat;lon;timestamp;P1;durP1;ratioP1;P2;durP2;ratioP2
10351;SDS011;5222;49.324;8.420;2022-08-19T00:01:58;1012.03;;;946.80;;
10351;SDS011;5222;49.324;8.420;2022-08-19T00:04:26;1025.55;;;959.92;;
10351;SDS011;5222;49.324;8.420;2022-08-19T00:06:54;1034.65;;;968.25;;
10351;SDS011;5222;49.324;8.420;2022-08-19T00:09:21;1030.57;;;964.85;;
10351;SDS011;5222;49.324;8.420;2022-08-19T00:11:50;1032.18;;;966.35;;
10351;SDS011;5222;49.324;8.420;2022-08-19T00:14:18;1009.67;;;943.80;;
10351;SDS011;5222;49.324;8.420;2022-08-19T00:16:48;1010.30;;;945.40;;
10351;SDS011;5222;49.324;8.420;2022-08-19T00:19:16;1020.47;;;954.42;;
10351;SDS011;5222;49.324;8.420;2022-08-19T00:21:43;1017.20;;;951.15;;
10351;SDS011;5222;49.324;8.420;2022-08-19T00:24:11;1014.47;;;947.55;;
10351;SDS011;5222;49.324;8.420;2022-08-19T00:26:38;1022.00;;;956.07;;
10351;SDS011;5222;49.324;8.420;2022-08-19T00:29:07;1019.40;;;954.08;;
10351;SDS011;5222;49.324;8.420;2022-08-19T00:31:35;1025.45;;;958.20;;
10351;SDS011;5222;49.324;8.420;2022-08-19T00:34:03;1029.73;;;959.93;;
10351;SDS011;5222;49.324;8.420;2022-08-19T00:36:30;1022.23;;;954.50;;
10351;SDS011;5222;49.324;8.420;2022-08-19T00:38:58;1012.55;;;946.13;;
10351;SDS011;5222;49.324;8.420;2022-08-19T00:41:25;1010.15;;;943.53;;
10351;SDS011;5222;49.324;8.420;2022-08-19T00:43:56;1020.80;;;952.80;;
10351;SDS011;5222;49.324;8.420;2022-08-19T00:46:25;1025.03;;;958.15;;
10351;SDS011;5222;49.324;8.420;2022-08-19T00:48:51;1014.05;;;949.20;;
10351;SDS011;5222;49.324;8.420;2022-08-19T00:51:20;1018.60;;;952.08;;
10351;SDS011;5222;49.324;8.420;2022-08-19T00:53:48;1008.83;;;943.17;;
10351;SDS011;5222;49.324;8.420;2022-08-19T00:56:15;1002.42;;;936.50;;
10351;SDS011;5222;49.324;8.420;2022-08-19T00:58:42;1012.15;;;946.63;;
10351;SDS011;5222;49.324;8.420;2022-08-19T01:01:09;1011.00;;;945.92;;
10351;SDS011;5222;49.324;8.420;2022-08-19T01:03:36;1020.55;;;954.05;;
10351;SDS011;5222;49.324;8.420;2022-08-19T01:06:03;1017.28;;;951.47;;
10351;SDS011;5222;49.324;8.420;2022-08-19T01:08:33;1013.30;;;947.33;;
10351;SDS011;5222;49.324;8.420;2022-08-19T01:11:00;1021.15;;;955.28;;
10351;SDS011;5222;49.324;8.420;2022-08-19T01:13:27;1008.42;;;943.08;;
10351;SDS011;5222;49.324;8.420;2022-08-19T01:16:00;1011.67;;;945.80;;
10351;SDS011;5222;49.324;8.420;2022-08-19T01:18:29;1020.47;;;955.10;;
10351;SDS011;5222;49.324;8.420;2022-08-19T01:21:05;1018.03;;;952.38;;
10351;SDS011;5222;49.324;8.420;2022-08-19T01:23:37;1019.50;;;953.40;;
10351;SDS011;5222;49.324;8.420;2022-08-19T01:26:11;1011.72;;;947.00;;
10351;SDS011;5222;49.324;8.420;2022-08-19T01:28:41;1012.58;;;947.42;;
10351;SDS011;5222;49.324;8.420;2022-08-19T01:31:14;1008.88;;;944.28;;
10351;SDS011;5222;49.324;8.420;2022-08-19T01:33:43;1004.17;;;939.40;;
10351;SDS011;5222;49.324;8.420;2022-08-19T01:36:12;1007.55;;;943.17;;
10351;SDS011;5222;49.324;8.420;2022-08-19T01:38:43;1011.80;;;947.38;;
10351;SDS011;5222;49.324;8.420;2022-08-19T01:41:11;1013.65;;;949.33;;
10351;SDS011;5222;49.324;8.420;2022-08-19T01:43:38;1021.58;;;956.17;;
10351;SDS011;5222;49.324;8.420;2022-08-19T01:46:07;1017.38;;;951.80;;
10351;SDS011;5222;49.324;8.420;2022-08-19T01:48:35;1016.13;;;950.92;;
10351;SDS011;5222;49.324;8.420;2022-08-19T01:51:03;1002.85;;;938.05;;
10351;SDS011;5222;49.324;8.420;2022-08-19T01:53:31;1008.38;;;943.67;;
10351;SDS011;5222;49.324;8.420;2022-08-19T01:55:59;1003.63;;;939.17;;
10351;SDS011;5222;49.324;8.420;2022-08-19T01:58:29;996.95;;;932.67;;
10351;SDS011;5222;49.324;8.420;2022-08-19T02:01:01;1009.83;;;944.85;;
10351;SDS011;5222;49.324;8.420;2022-08-19T02:03:28;1006.10;;;941.05;;
10351;SDS011;5222;49.324;8.420;2022-08-19T02:05:56;1018.50;;;953.20;;
10351;SDS011;5222;49.324;8.420;2022-08-19T02:08:24;1005.40;;;940.47;;
10351;SDS011;5222;49.324;8.420;2022-08-19T02:10:52;1012.35;;;947.20;;
10351;SDS011;5222;49.324;8.420;2022-08-19T02:13:20;1000.38;;;935.03;;
10351;SDS011;5222;49.324;8.420;2022-08-19T02:15:47;1012.72;;;946.92;;
10351;SDS011;5222;49.324;8.420;2022-08-19T02:18:14;1013.08;;;947.22;;
10351;SDS011;5222;49.324;8.420;2022-08-19T02:20:41;1010.17;;;945.22;;
10351;SDS011;5222;49.324;8.420;2022-08-19T02:23:10;1001.55;;;937.45;;
10351;SDS011;5222;49.324;8.420;2022-08-19T02:25:38;1006.30;;;941.38;;
10351;SDS011;5222;49.324;8.420;2022-08-19T02:28:05;991.50;;;927.22;;
10351;SDS011;5222;49.324;8.420;2022-08-19T02:30:34;990.63;;;925.88;;
10351;SDS011;5222;49.324;8.420;2022-08-19T02:33:00;1001.95;;;937.55;;
10351;SDS011;5222;49.324;8.420;2022-08-19T02:35:27;909.57;;;848.27;;
10351;SDS011;5222;49.324;8.420;2022-08-19T02:37:54;985.75;;;921.72;;
10351;SDS011;5222;49.324;8.420;2022-08-19T02:40:38;989.38;;;925.80;;
10351;SDS011;5222;49.324;8.420;2022-08-19T02:43:06;1000.13;;;935.45;;
10351;SDS011;5222;49.324;8.420;2022-08-19T02:45:36;994.00;;;929.83;;
10351;SDS011;5222;49.324;8.420;2022-08-19T02:48:05;990.63;;;926.28;;
10351;SDS011;5222;49.324;8.420;2022-08-19T02:50:33;999.07;;;934.67;;
10351;SDS011;5222;49.324;8.420;2022-08-19T02:53:04;994.90;;;929.63;;
10351;SDS011;5222;49.324;8.420;2022-08-19T02:55:31;997.78;;;933.25;;
10351;SDS011;5222;49.324;8.420;2022-08-19T02:57:58;1000.47;;;935.15;;
10351;SDS011;5222;49.324;8.420;2022-08-19T03:00:25;985.33;;;920.65;;
10351;SDS011;5222;49.324;8.420;2022-08-19T03:02:53;996.60;;;931.83;;
10351;SDS011;5222;49.324;8.420;2022-08-19T03:05:20;979.77;;;915.83;;
10351;SDS011;5222;49.324;8.420;2022-08-19T03:07:47;982.10;;;918.15;;
10351;SDS011;5222;49.324;8.420;2022-08-19T03:10:14;992.65;;;926.85;;
10351;SDS011;5222;49.324;8.420;2022-08-19T03:12:41;987.63;;;922.73;;
10351;SDS011;5222;49.324;8.420;2022-08-19T03:15:08;1001.17;;;934.88;;
10351;SDS011;5222;49.324;8.420;2022-08-19T03:17:35;987.55;;;921.83;;
10351;SDS011;5222;49.324;8.420;2022-08-19T03:20:04;993.58;;;927.95;;
10351;SDS011;5222;49.324;8.420;2022-08-19T03:22:31;987.55;;;922.15;;
10351;SDS011;5222;49.324;8.420;2022-08-19T03:24:58;996.63;;;930.73;;
10351;SDS011;5222;49.324;8.420;2022-08-19T03:27:27;1005.25;;;939.88;;
10351;SDS011;5222;49.324;8.420;2022-08-19T03:29:54;1006.13;;;939.80;;
10351;SDS011;5222;49.324;8.420;2022-08-19T03:32:21;996.10;;;931.00;;
10351;SDS011;5222;49.324;8.420;2022-08-19T03:34:48;1000.50;;;935.17;;
10351;SDS011;5222;49.324;8.420;2022-08-19T03:37:17;993.95;;;929.22;;
10351;SDS011;5222;49.324;8.420;2022-08-19T03:39:43;1010.33;;;943.80;;
10351;SDS011;5222;49.324;8.420;2022-08-19T03:42:10;994.67;;;929.40;;
10351;SDS011;5222;49.324;8.420;2022-08-19T03:44:38;994.53;;;929.63;;
10351;SDS011;5222;49.324;8.420;2022-08-19T03:47:05;1002.70;;;937.47;;
10351;SDS011;5222;49.324;8.420;2022-08-19T03:49:32;1012.15;;;946.58;;
10351;SDS011;5222;49.324;8.420;2022-08-19T03:52:00;1004.40;;;938.80;;
10351;SDS011;5222;49.324;8.420;2022-08-19T03:54:31;996.55;;;931.50;;
10351;SDS011;5222;49.324;8.420;2022-08-19T03:56:57;1014.53;;;948.30;;
10351;SDS011;5222;49.324;8.420;2022-08-19T03:59:25;1014.67;;;948.40;;
10351;SDS011;5222;49.324;8.420;2022-08-19T04:01:54;1018.60;;;951.47;;
10351;SDS011;5222;49.324;8.420;2022-08-19T04:04:21;999.17;;;933.83;;
10351;SDS011;5222;49.324;8.420;2022-08-19T04:06:49;1000.63;;;934.70;;
10351;SDS011;5222;49.324;8.420;2022-08-19T04:09:16;1010.70;;;944.93;;
10351;SDS011;5222;49.324;8.420;2022-08-19T04:11:45;1019.42;;;953.25;;
10351;SDS011;5222;49.324;8.420;2022-08-19T04:14:14;1017.20;;;949.92;;
10351;SDS011;5222;49.324;8.420;2022-08-19T04:16:43;1008.22;;;942.95;;
10351;SDS011;5222;49.324;8.420;2022-08-19T04:19:11;1014.00;;;948.60;;
10351;SDS011;5222;49.324;8.420;2022-08-19T04:21:40;1007.13;;;941.42;;
10351;SDS011;5222;49.324;8.420;2022-08-19T04:24:10;1011.83;;;944.45;;
10351;SDS011;5222;49.324;8.420;2022-08-19T04:26:37;1020.20;;;954.00;;
10351;SDS011;5222;49.324;8.420;2022-08-19T04:29:07;1012.22;;;945.33;;
10351;SDS011;5222;49.324;8.420;2022-08-19T04:31:37;1008.70;;;942.20;;
10351;SDS011;5222;49.324;8.420;2022-08-19T04:34:06;1015.75;;;948.22;;
10351;SDS011;5222;49.324;8.420;2022-08-19T04:36:36;1014.40;;;947.15;;
10351;SDS011;5222;49.324;8.420;2022-08-19T04:39:07;1002.78;;;935.95;;
10351;SDS011;5222;49.324;8.420;2022-08-19T04:41:36;1013.78;;;947.33;;
10351;SDS011;5222;49.324;8.420;2022-08-19T04:44:22;1002.92;;;936.03;;
10351;SDS011;5222;49.324;8.420;2022-08-19T04:46:49;1001.80;;;934.92;;
10351;SDS011;5222;49.324;8.420;2022-08-19T04:49:17;996.58;;;930.10;;
10351;SDS011;5222;49.324;8.420;2022-08-19T04:51:46;1008.97;;;942.92;;
10351;SDS011;5222;49.324;8.420;2022-08-19T04:54:14;1008.33;;;941.10;;
10351;SDS011;5222;49.324;8.420;2022-08-19T04:56:41;1001.80;;;935.38;;
10351;SDS011;5222;49.324;8.420;2022-08-19T04:59:08;1005.57;;;938.07;;
10351;SDS011;5222;49.324;8.420;2022-08-19T05:01:37;1010.10;;;942.87;;
10351;SDS011;5222;49.324;8.420;2022-08-19T05:04:04;1017.57;;;948.93;;
10351;SDS011;5222;49.324;8.420;2022-08-19T05:06:33;1005.58;;;939.35;;
10351;SDS011;5222;49.324;8.420;2022-08-19T05:09:02;1000.38;;;933.95;;
10351;SDS011;5222;49.324;8.420;2022-08-19T05:11:30;1001.35;;;935.08;;
10351;SDS011;5222;49.324;8.420;2022-08-19T05:13:59;1005.80;;;937.72;;
10351;SDS011;5222;49.324;8.420;2022-08-19T05:16:27;994.25;;;928.55;;
10351;SDS011;5222;49.324;8.420;2022-08-19T05:18:55;1002.03;;;936.22;;
10351;SDS011;5222;49.324;8.420;2022-08-19T05:21:40;1000.92;;;935.15;;
10351;SDS011;5222;49.324;8.420;2022-08-19T05:24:24;1009.70;;;943.30;;
10351;SDS011;5222;49.324;8.420;2022-08-19T05:26:54;1000.40;;;934.83;;
10351;SDS011;5222;49.324;8.420;2022-08-19T05:29:23;997.90;;;931.53;;
10351;SDS011;5222;49.324;8.420;2022-08-19T05:31:51;995.70;;;929.45;;
10351;SDS011;5222;49.324;8.420;2022-08-19T05:34:21;996.85;;;930.03;;
10351;SDS011;5222;49.324;8.420;2022-08-19T05:36:51;999.80;;;932.78;;
10351;SDS011;5222;49.324;8.420;2022-08-19T05:39:22;993.20;;;926.35;;
10351;SDS011;5222;49.324;8.420;2022-08-19T05:41:53;1007.13;;;939.45;;
10351;SDS011;5222;49.324;8.420;2022-08-19T05:44:22;995.13;;;927.95;;
10351;SDS011;5222;49.324;8.420;2022-08-19T05:46:50;1000.50;;;933.05;;
10351;SDS011;5222;49.324;8.420;2022-08-19T05:49:19;987.47;;;920.60;;
10351;SDS011;5222;49.324;8.420;2022-08-19T05:51:48;993.53;;;925.83;;
10351;SDS011;5222;49.324;8.420;2022-08-19T05:54:15;999.60;;;930.90;;
10351;SDS011;5222;49.324;8.420;2022-08-19T05:56:43;1002.75;;;934.63;;
10351;SDS011;5222;49.324;8.420;2022-08-19T05:59:12;1000.50;;;932.55;;
10351;SDS011;5222;49.324;8.420;2022-08-19T06:01:40;994.13;;;926.35;;
10351;SDS011;5222;49.324;8.420;2022-08-19T06:04:08;1004.33;;;934.00;;
10351;SDS011;5222;49.324;8.420;2022-08-19T06:06:36;1000.65;;;932.35;;
10351;SDS011;5222;49.324;8.420;2022-08-19T06:09:04;996.35;;;928.53;;
10351;SDS011;5222;49.324;8.420;2022-08-19T06:11:33;997.17;;;928.40;;
10351;SDS011;5222;49.324;8.420;2022-08-19T06:14:05;1001.97;;;932.03;;
10351;SDS011;5222;49.324;8.420;2022-08-19T06:16:34;994.55;;;926.47;;
10351;SDS011;5222;49.324;8.420;2022-08-19T06:19:04;984.55;;;917.03;;
10351;SDS011;5222;49.324;8.420;2022-08-19T06:21:33;981.13;;;914.67;;
10351;SDS011;5222;49.324;8.420;2022-08-19T06:24:04;976.00;;;910.03;;
10351;SDS011;5222;49.324;8.420;2022-08-19T06:26:32;963.17;;;897.47;;
10351;SDS011;5222;49.324;8.420;2022-08-19T06:29:00;978.03;;;911.45;;
10351;SDS011;5222;49.324;8.420;2022-08-19T06:31:28;979.90;;;912.88;;
10351;SDS011;5222;49.324;8.420;2022-08-19T06:33:58;986.15;;;917.35;;
10351;SDS011;5222;49.324;8.420;2022-08-19T06:36:28;986.55;;;919.88;;
10351;SDS011;5222;49.324;8.420;2022-08-19T06:38:59;979.03;;;912.13;;
10351;SDS011;5222;49.324;8.420;2022-08-19T06:41:28;965.50;;;900.25;;
10351;SDS011;5222;49.324;8.420;2022-08-19T06:43:56;974.08;;;906.50;;
10351;SDS011;5222;49.324;8.420;2022-08-19T06:46:24;961.65;;;895.97;;
10351;SDS011;5222;49.324;8.420;2022-08-19T06:48:52;972.65;;;907.22;;
10351;SDS011;5222;49.324;8.420;2022-08-19T06:51:20;966.90;;;900.70;;
10351;SDS011;5222;49.324;8.420;2022-08-19T06:53:49;973.87;;;906.17;;
10351;SDS011;5222;49.324;8.420;2022-08-19T06:56:19;972.45;;;905.53;;
10351;SDS011;5222;49.324;8.420;2022-08-19T06:58:51;959.00;;;893.95;;
10351;SDS011;5222;49.324;8.420;2022-08-19T07:01:18;967.75;;;900.53;;
10351;SDS011;5222;49.324;8.420;2022-08-19T07:03:45;951.07;;;886.10;;
10351;SDS011;5222;49.324;8.420;2022-08-19T07:06:13;952.40;;;887.47;;
10351;SDS011;5222;49.324;8.420;2022-08-19T07:08:42;961.15;;;895.60;;
10351;SDS011;5222;49.324;8.420;2022-08-19T07:11:11;961.85;;;896.65;;
10351;SDS011;5222;49.324;8.420;2022-08-19T07:13:41;960.63;;;894.47;;
10351;SDS011;5222;49.324;8.420;2022-08-19T07:16:11;956.35;;;891.75;;
10351;SDS011;5222;49.324;8.420;2022-08-19T07:18:39;951.63;;;886.85;;
10351;SDS011;5222;49.324;8.420;2022-08-19T07:21:07;951.72;;;886.90;;
10351;SDS011;5222;49.324;8.420;2022-08-19T07:23:36;972.50;;;906.20;;
10351;SDS011;5222;49.324;8.420;2022-08-19T07:26:04;959.67;;;894.97;;
10351;SDS011;5222;49.324;8.420;2022-08-19T07:28:33;962.47;;;896.35;;
10351;SDS011;5222;49.324;8.420;2022-08-19T07:31:04;957.55;;;893.35;;
10351;SDS011;5222;49.324;8.420;2022-08-19T07:33:33;962.55;;;897.40;;
10351;SDS011;5222;49.324;8.420;2022-08-19T07:36:02;963.75;;;899.10;;
10351;SDS011;5222;49.324;8.420;2022-08-19T07:38:31;966.03;;;900.25;;
10351;SDS011;5222;49.324;8.420;2022-08-19T07:40:58;964.67;;;899.08;;
10351;SDS011;5222;49.324;8.420;2022-08-19T07:43:25;971.40;;;905.38;;
10351;SDS011;5222;49.324;8.420;2022-08-19T07:45:52;984.78;;;918.88;;
10351;SDS011;5222;49.324;8.420;2022-08-19T07:48:21;962.42;;;897.95;;
10351;SDS011;5222;49.324;8.420;2022-08-19T07:50:52;954.60;;;890.50;;
10351;SDS011;5222;49.324;8.420;2022-08-19T07:53:19;968.20;;;903.08;;
10351;SDS011;5222;49.324;8.420;2022-08-19T07:55:46;974.15;;;907.88;;
10351;SDS011;5222;49.324;8.420;2022-08-19T07:58:15;958.22;;;894.13;;
10351;SDS011;5222;49.324;8.420;2022-08-19T08:00:46;975.05;;;909.58;;
10351;SDS011;5222;49.324;8.420;2022-08-19T08:03:17;986.25;;;920.67;;
10351;SDS011;5222;49.324;8.420;2022-08-19T08:06:08;970.95;;;906.33;;
10351;SDS011;5222;49.324;8.420;2022-08-19T08:08:53;978.90;;;913.87;;
10351;SDS011;5222;49.324;8.420;2022-08-19T08:11:45;993.22;;;927.35;;
10351;SDS011;5222;49.324;8.420;2022-08-19T08:14:15;987.72;;;920.95;;
10351;SDS011;5222;49.324;8.420;2022-08-19T08:16:42;984.92;;;919.63;;
10351;SDS011;5222;49.324;8.420;2022-08-19T08:19:10;987.75;;;921.90;;
10351;SDS011;5222;49.324;8.420;2022-08-19T08:21:41;982.78;;;917.97;;
10351;SDS011;5222;49.324;8.420;2022-08-19T08:24:08;986.78;;;919.88;;
10351;SDS011;5222;49.324;8.420;2022-08-19T08:26:35;973.33;;;908.70;;
10351;SDS011;5222;49.324;8.420;2022-08-19T08:29:02;978.88;;;914.60;;
10351;SDS011;5222;49.324;8.420;2022-08-19T08:31:29;979.35;;;915.05;;
10351;SDS011;5222;49.324;8.420;2022-08-19T08:33:59;997.03;;;929.45;;
10351;SDS011;5222;49.324;8.420;2022-08-19T08:36:26;978.80;;;913.95;;
10351;SDS011;5222;49.324;8.420;2022-08-19T08:38:54;985.00;;;919.40;;
10351;SDS011;5222;49.324;8.420;2022-08-19T08:41:26;975.28;;;910.42;;
10351;SDS011;5222;49.324;8.420;2022-08-19T08:43:57;980.85;;;915.70;;
10351;SDS011;5222;49.324;8.420;2022-08-19T08:46:27;978.38;;;913.35;;
10351;SDS011;5222;49.324;8.420;2022-08-19T08:49:01;973.47;;;908.10;;
10351;SDS011;5222;49.324;8.420;2022-08-19T08:51:33;965.55;;;901.78;;
10351;SDS011;5222;49.324;8.420;2022-08-19T08:54:06;980.65;;;913.45;;
10351;SDS011;5222;49.324;8.420;2022-08-19T08:56:37;978.72;;;912.97;;
10351;SDS011;5222;49.324;8.420;2022-08-19T08:59:05;976.88;;;912.53;;
10351;SDS011;5222;49.324;8.420;2022-08-19T09:01:38;978.30;;;913.50;;
10351;SDS011;5222;49.324;8.420;2022-08-19T09:04:05;983.65;;;916.55;;
10351;SDS011;5222;49.324;8.420;2022-08-19T09:06:37;969.15;;;904.95;;
10351;SDS011;5222;49.324;8.420;2022-08-19T09:09:13;981.13;;;916.47;;
10351;SDS011;5222;49.324;8.420;2022-08-19T09:11:47;974.30;;;909.83;;
10351;SDS011;5222;49.324;8.420;2022-08-19T09:14:30;971.15;;;907.00;;
10351;SDS011;5222;49.324;8.420;2022-08-19T09:17:00;940.22;;;877.45;;
10351;SDS011;5222;49.324;8.420;2022-08-19T09:19:28;848.60;;;787.53;;
10351;SDS011;5222;49.324;8.420;2022-08-19T09:21:55;810.92;;;750.72;;
10351;SDS011;5222;49.324;8.420;2022-08-19T09:24:26;811.17;;;751.25;;
10351;SDS011;5222;49.324;8.420;2022-08-19T09:26:53;815.20;;;755.40;;
10351;SDS011;5222;49.324;8.420;2022-08-19T09:29:21;800.70;;;741.25;;
10351;SDS011;5222;49.324;8.420;2022-08-19T09:31:48;805.88;;;745.13;;
10351;SDS011;5222;49.324;8.420;2022-08-19T09:34:15;809.30;;;749.00;;
10351;SDS011;5222;49.324;8.420;2022-08-19T09:36:45;809.17;;;749.67;;
10351;SDS011;5222;49.324;8.420;2022-08-19T09:39:11;812.65;;;751.95;;
10351;SDS011;5222;49.324;8.420;2022-08-19T09:41:39;803.63;;;743.80;;
10351;SDS011;5222;49.324;8.420;2022-08-19T09:44:06;821.97;;;759.95;;
10351;SDS011;5222;49.324;8.420;2022-08-19T09:46:33;810.15;;;750.38;;
10351;SDS011;5222;49.324;8.420;2022-08-19T09:49:00;805.63;;;745.97;;
10351;SDS011;5222;49.324;8.420;2022-08-19T09:51:29;805.22;;;746.03;;
10351;SDS011;5222;49.324;8.420;2022-08-19T09:53:58;816.63;;;754.45;;
10351;SDS011;5222;49.324;8.420;2022-08-19T09:56:26;804.85;;;743.88;;
10351;SDS011;5222;49.324;8.420;2022-08-19T09:58:54;809.75;;;749.78;;
10351;SDS011;5222;49.324;8.420;2022-08-19T10:01:23;805.72;;;744.15;;
10351;SDS011;5222;49.324;8.420;2022-08-19T10:03:52;814.20;;;751.88;;
10351;SDS011;5222;49.324;8.420;2022-08-19T10:06:21;802.95;;;742.70;;
10351;SDS011;5222;49.324;8.420;2022-08-19T10:08:50;811.17;;;751.47;;
10351;SDS011;5222;49.324;8.420;2022-08-19T10:11:18;822.97;;;762.00;;
10351;SDS011;5222;49.324;8.420;2022-08-19T10:13:46;806.20;;;745.92;;
10351;SDS011;5222;49.324;8.420;2022-08-19T10:16:15;807.65;;;748.20;;
10351;SDS011;5222;49.324;8.420;2022-08-19T10:18:45;806.30;;;746.88;;
10351;SDS011;5222;49.324;8.420;2022-08-19T10:21:13;811.85;;;752.03;;
10351;SDS011;5222;49.324;8.420;2022-08-19T10:23:42;818.97;;;757.97;;
10351;SDS011;5222;49.324;8.420;2022-08-19T10:26:11;812.73;;;752.30;;
10351;SDS011;5222;49.324;8.420;2022-08-19T10:28:39;799.60;;;740.28;;
10351;SDS011;5222;49.324;8.420;2022-08-19T10:31:07;791.28;;;732.63;;
10351;SDS011;5222;49.324;8.420;2022-08-19T10:33:37;795.92;;;736.85;;
10351;SDS011;5222;49.324;8.420;2022-08-19T10:36:05;798.67;;;738.83;;
10351;SDS011;5222;49.324;8.420;2022-08-19T10:38:35;799.05;;;738.75;;
10351;SDS011;5222;49.324;8.420;2022-08-19T10:41:06;795.78;;;736.72;;
10351;SDS011;5222;49.324;8.420;2022-08-19T10:43:34;790.85;;;731.58;;
10351;SDS011;5222;49.324;8.420;2022-08-19T10:46:03;795.22;;;735.30;;
10351;SDS011;5222;49.324;8.420;2022-08-19T10:48:30;792.13;;;732.77;;
10351;SDS011;5222;49.324;8.420;2022-08-19T10:50:59;777.47;;;719.35;;
10351;SDS011;5222;49.324;8.420;2022-08-19T10:53:39;783.95;;;725.20;;
10351;SDS011;5222;49.324;8.420;2022-08-19T10:56:06;779.70;;;720.97;;
10351;SDS011;5222;49.324;8.420;2022-08-19T10:58:50;811.50;;;750.92;;
10351;SDS011;5222;49.324;8.420;2022-08-19T11:01:17;810.20;;;749.87;;
10351;SDS011;5222;49.324;8.420;2022-08-19T11:03:44;842.75;;;778.90;;
10351;SDS011;5222;49.324;8.420;2022-08-19T11:06:12;778.22;;;719.80;;
10351;SDS011;5222;49.324;8.420;2022-08-19T11:08:39;797.47;;;738.58;;
10351;SDS011;5222;49.324;8.420;2022-08-19T11:11:07;792.67;;;733.90;;
10351;SDS011;5222;49.324;8.420;2022-08-19T11:13:35;803.63;;;743.80;;
10351;SDS011;5222;49.324;8.420;2022-08-19T11:16:06;804.10;;;744.53;;
10351;SDS011;5222;49.324;8.420;2022-08-19T11:18:35;797.60;;;738.40;;
10351;SDS011;5222;49.324;8.420;2022-08-19T11:21:07;790.28;;;731.50;;
10351;SDS011;5222;49.324;8.420;2022-08-19T11:23:37;789.78;;;730.78;;
10351;SDS011;5222;49.324;8.420;2022-08-19T11:26:04;794.45;;;735.95;;
10351;SDS011;5222;49.324;8.420;2022-08-19T11:28:31;796.35;;;737.83;;
10351;SDS011;5222;49.324;8.420;2022-08-19T11:30:58;806.00;;;745.83;;
10351;SDS011;5222;49.324;8.420;2022-08-19T11:33:24;802.15;;;743.63;;
10351;SDS011;5222;49.324;8.420;2022-08-19T11:35:52;805.67;;;745.92;;
10351;SDS011;5222;49.324;8.420;2022-08-19T11:38:19;802.65;;;743.92;;
10351;SDS011;5222;49.324;8.420;2022-08-19T11:40:54;815.15;;;755.33;;
10351;SDS011;5222;49.324;8.420;2022-08-19T11:43:22;802.00;;;743.05;;
10351;SDS011;5222;49.324;8.420;2022-08-19T11:45:49;811.80;;;752.40;;
10351;SDS011;5222;49.324;8.420;2022-08-19T11:48:16;802.33;;;742.97;;
10351;SDS011;5222;49.324;8.420;2022-08-19T11:50:47;820.15;;;759.70;;
10351;SDS011;5222;49.324;8.420;2022-08-19T11:53:14;813.13;;;753.47;;
10351;SDS011;5222;49.324;8.420;2022-08-19T11:55:44;817.80;;;758.22;;
10351;SDS011;5222;49.324;8.420;2022-08-19T11:58:12;814.40;;;754.40;;
10351;SDS011;5222;49.324;8.420;2022-08-19T12:00:40;802.55;;;743.78;;
10351;SDS011;5222;49.324;8.420;2022-08-19T12:03:10;814.95;;;754.50;;
10351;SDS011;5222;49.324;8.420;2022-08-19T12:05:37;811.28;;;751.97;;
10351;SDS011;5222;49.324;8.420;2022-08-19T12:08:05;805.97;;;746.70;;
10351;SDS011;5222;49.324;8.420;2022-08-19T12:10:32;803.33;;;744.20;;
10351;SDS011;5222;49.324;8.420;2022-08-19T12:12:59;807.28;;;747.42;;
10351;SDS011;5222;49.324;8.420;2022-08-19T12:15:27;805.90;;;747.10;;
10351;SDS011;5222;49.324;8.420;2022-08-19T12:17:54;814.40;;;753.95;;
10351;SDS011;5222;49.324;8.420;2022-08-19T12:20:23;817.55;;;758.05;;
10351;SDS011;5222;49.324;8.420;2022-08-19T12:22:51;835.13;;;774.58;;
10351;SDS011;5222;49.324;8.420;2022-08-19T12:25:18;833.73;;;773.23;;
10351;SDS011;5222;49.324;8.420;2022-08-19T12:27:45;831.75;;;771.35;;
10351;SDS011;5222;49.324;8.420;2022-08-19T12:30:12;825.28;;;765.00;;
10351;SDS011;5222;49.324;8.420;2022-08-19T12:32:41;838.47;;;778.22;;
10351;SDS011;5222;49.324;8.420;2022-08-19T12:35:08;845.80;;;784.53;;
10351;SDS011;5222;49.324;8.420;2022-08-19T12:37:36;827.33;;;767.13;;
10351;SDS011;5222;49.324;8.420;2022-08-19T12:40:04;815.55;;;754.90;;
10351;SDS011;5222;49.324;8.420;2022-08-19T12:42:31;804.63;;;744.42;;
10351;SDS011;5222;49.324;8.420;2022-08-19T12:44:58;816.63;;;755.40;;
10351;SDS011;5222;49.324;8.420;2022-08-19T12:47:25;799.50;;;740.65;;
10351;SDS011;5222;49.324;8.420;2022-08-19T12:49:53;796.58;;;737.25;;
10351;SDS011;5222;49.324;8.420;2022-08-19T12:52:22;798.10;;;739.23;;
10351;SDS011;5222;49.324;8.420;2022-08-19T12:54:50;828.88;;;768.42;;
10351;SDS011;5222;49.324;8.420;2022-08-19T12:57:19;805.00;;;745.13;;
10351;SDS011;5222;49.324;8.420;2022-08-19T12:59:45;815.80;;;755.83;;
10351;SDS011;5222;49.324;8.420;2022-08-19T13:02:12;799.65;;;741.00;;
10351;SDS011;5222;49.324;8.420;2022-08-19T13:04:39;800.20;;;740.65;;
10351;SDS011;5222;49.324;8.420;2022-08-19T13:07:07;805.97;;;746.80;;
10351;SDS011;5222;49.324;8.420;2022-08-19T13:09:34;803.20;;;743.97;;
10351;SDS011;5222;49.324;8.420;2022-08-19T13:12:02;809.37;;;749.70;;
10351;SDS011;5222;49.324;8.420;2022-08-19T13:14:33;803.85;;;744.15;;
10351;SDS011;5222;49.324;8.420;2022-08-19T13:17:00;800.72;;;741.40;;
10351;SDS011;5222;49.324;8.420;2022-08-19T13:19:28;804.20;;;743.63;;
10351;SDS011;5222;49.324;8.420;2022-08-19T13:21:56;804.40;;;744.77;;
10351;SDS011;5222;49.324;8.420;2022-08-19T13:24:25;800.53;;;741.70;;
10351;SDS011;5222;49.324;8.420;2022-08-19T13:26:51;805.83;;;746.20;;
10351;SDS011;5222;49.324;8.420;2022-08-19T13:29:18;802.97;;;744.28;;
10351;SDS011;5222;49.324;8.420;2022-08-19T13:32:03;819.30;;;759.47;;
10351;SDS011;5222;49.324;8.420;2022-08-19T13:34:47;827.30;;;766.90;;
10351;SDS011;5222;49.324;8.420;2022-08-19T13:37:14;819.92;;;760.63;;
10351;SDS011;5222;49.324;8.420;2022-08-19T13:39:42;806.13;;;746.95;;
10351;SDS011;5222;49.324;8.420;2022-08-19T13:42:09;810.40;;;750.83;;
10351;SDS011;5222;49.324;8.420;2022-08-19T13:44:38;785.97;;;727.35;;
10351;SDS011;5222;49.324;8.420;2022-08-19T13:47:05;802.05;;;743.25;;
10351;SDS011;5222;49.324;8.420;2022-08-19T13:49:33;799.58;;;740.83;;
10351;SDS011;5222;49.324;8.420;2022-08-19T13:52:01;812.38;;;753.05;;
10351;SDS011;5222;49.324;8.420;2022-08-19T13:54:28;804.60;;;745.65;;
10351;SDS011;5222;49.324;8.420;2022-08-19T13:56:57;812.10;;;751.60;;
10351;SDS011;5222;49.324;8.420;2022-08-19T13:59:23;799.60;;;740.47;;
10351;SDS011;5222;49.324;8.420;2022-08-19T14:01:50;808.90;;;749.00;;
10351;SDS011;5222;49.324;8.420;2022-08-19T14:04:18;803.63;;;743.55;;
10351;SDS011;5222;49.324;8.420;2022-08-19T14:06:45;790.45;;;731.47;;
10351;SDS011;5222;49.324;8.420;2022-08-19T14:09:12;794.00;;;735.67;;
10351;SDS011;5222;49.324;8.420;2022-08-19T14:11:38;812.08;;;752.78;;
10351;SDS011;5222;49.324;8.420;2022-08-19T14:14:06;805.67;;;744.85;;
10351;SDS011;5222;49.324;8.420;2022-08-19T14:16:33;795.10;;;736.10;;